createdAt,value
2018-11-20T00:01:14.947Z,6.98
2018-11-20T00:04:01.690Z,6.96
2018-11-20T00:06:44.607Z,7.01
2018-11-20T00:09:31.329Z,7.09
2018-11-20T00:12:19.505Z,7.08
2018-11-20T00:15:07.364Z,7.08
2018-11-20T00:17:50.263Z,7.11
2018-11-20T00:20:37.441Z,7.05
2018-11-20T00:23:24.125Z,7.14
2018-11-20T00:26:08.800Z,7.00
2018-11-20T00:29:03.277Z,7.01
2018-11-20T00:31:52.680Z,7.08
2018-11-20T00:34:39.721Z,7.09
2018-11-20T00:37:25.875Z,6.33
2018-11-20T00:40:12.667Z,7.09
2018-11-20T00:42:57.688Z,7.12
2018-11-20T00:45:51.940Z,7.08
2018-11-20T00:48:41.544Z,7.05
2018-11-20T00:51:22.960Z,7.03
2018-11-20T00:54:10.071Z,6.89
2018-11-20T00:56:57.215Z,6.72
2018-11-20T00:59:45.953Z,6.70
2018-11-20T01:02:26.915Z,6.59
2018-11-20T01:05:30.039Z,6.66
2018-11-20T01:08:11.332Z,6.65
2018-11-20T01:11:11.283Z,6.66
2018-11-20T01:14:08.367Z,6.67
2018-11-20T01:16:53.767Z,6.68
2018-11-20T01:19:44.740Z,6.71
2018-11-20T01:22:29.319Z,6.75
2018-11-20T01:25:32.807Z,6.70
2018-11-20T01:28:18.173Z,6.70
2018-11-20T01:31:04.922Z,6.73
2018-11-20T01:34:02.018Z,6.71
2018-11-20T01:36:43.847Z,6.66
2018-11-20T01:39:30.884Z,6.65
2018-11-20T01:42:18.050Z,6.65
2018-11-20T01:44:58.539Z,6.60
2018-11-20T01:47:55.704Z,6.50
2018-11-20T01:50:44.087Z,6.45
2018-11-20T01:53:41.475Z,6.52
2018-11-20T01:56:32.700Z,6.49
2018-11-20T01:59:23.004Z,6.48
2018-11-20T02:02:10.166Z,6.46
2018-11-20T02:05:13.363Z,6.45
2018-11-20T02:08:07.652Z,6.41
2018-11-20T02:11:04.957Z,6.34
2018-11-20T02:14:11.094Z,6.36
2018-11-20T02:17:05.771Z,6.32
2018-11-20T02:20:12.195Z,6.30
2018-11-20T02:23:06.386Z,6.33
2018-11-20T02:26:00.638Z,6.29
2018-11-20T02:28:47.804Z,6.29
2018-11-20T02:31:31.396Z,6.30
2018-11-20T02:34:26.289Z,6.22
2018-11-20T02:37:12.288Z,6.19
2018-11-20T02:40:06.556Z,6.16
2018-11-20T02:42:44.206Z,6.18
2018-11-20T02:45:44.451Z,5.44
2018-11-20T02:48:28.413Z,6.18
2018-11-20T02:51:19.721Z,6.09
2018-11-20T02:54:06.562Z,6.13
2018-11-20T02:56:53.695Z,6.09
2018-11-20T02:59:40.586Z,6.06
2018-11-20T03:02:46.787Z,6.05
2018-11-20T03:05:36.431Z,6.12
2018-11-20T03:08:24.758Z,6.13
2018-11-20T03:11:31.626Z,6.11
2018-11-20T03:14:38.208Z,6.11
2018-11-20T03:17:25.054Z,6.09
2018-11-20T03:20:04.235Z,6.06
2018-11-20T03:22:52.838Z,6.11
2018-11-20T03:25:59.364Z,6.22
2018-11-20T03:28:49.601Z,6.28
2018-11-20T03:31:37.481Z,6.38
2018-11-20T03:34:24.320Z,6.41
2018-11-20T03:37:15.215Z,6.51
2018-11-20T03:39:59.145Z,6.53
2018-11-20T03:42:50.217Z,6.62
2018-11-20T03:45:38.514Z,6.69
2018-11-20T03:48:34.263Z,6.78
2018-11-20T03:51:21.036Z,6.88
2018-11-20T03:54:18.169Z,6.89
2018-11-20T03:56:59.409Z,6.87
2018-11-20T03:59:53.590Z,6.84
2018-11-20T04:02:57.072Z,6.97
2018-11-20T04:05:42.524Z,6.99
2018-11-20T04:08:29.554Z,6.99
2018-11-20T04:11:16.708Z,6.97
2018-11-20T04:14:10.941Z,6.94
2018-11-20T04:16:52.340Z,6.87
2018-11-20T04:19:39.228Z,6.95
2018-11-20T04:22:26.339Z,6.99
2018-11-20T04:25:30.167Z,6.97
2018-11-20T04:28:21.603Z,6.89
2018-11-20T04:31:34.349Z,6.88
2018-11-20T04:34:29.458Z,7.00
2018-11-20T04:37:30.072Z,6.91
2018-11-20T04:40:18.426Z,6.95
2018-11-20T04:43:16.634Z,7.07
2018-11-20T04:46:04.803Z,7.15
2018-11-20T04:48:53.114Z,7.18
2018-11-20T04:51:47.357Z,7.13
2018-11-20T04:54:44.764Z,7.27
2018-11-20T04:57:32.009Z,7.33
2018-11-20T05:00:17.298Z,7.34
2018-11-20T05:03:14.022Z,7.29
2018-11-20T05:06:00.774Z,7.32
2018-11-20T05:08:40.431Z,7.36
2018-11-20T05:11:35.852Z,7.44
2018-11-20T05:14:23.238Z,7.43
2018-11-20T05:17:10.118Z,7.42
2018-11-20T05:20:09.080Z,7.32
2018-11-20T05:23:02.451Z,7.21
2018-11-20T05:26:05.831Z,7.29
2018-11-20T05:28:52.630Z,7.28
2018-11-20T05:31:39.915Z,7.27
2018-11-20T05:34:30.765Z,7.29
2018-11-20T05:37:25.216Z,7.25
2018-11-20T05:40:12.497Z,6.70
2018-11-20T05:43:18.979Z,7.32
2018-11-20T05:46:19.508Z,7.24
2018-11-20T05:49:16.448Z,7.22
2018-11-20T05:52:03.091Z,7.27
2018-11-20T05:54:44.749Z,7.26
2018-11-20T05:57:45.366Z,7.31
2018-11-20T06:00:32.659Z,7.36
2018-11-20T06:03:19.893Z,7.34
2018-11-20T06:06:10.895Z,7.35
2018-11-20T06:08:57.633Z,7.44
2018-11-20T06:11:48.402Z,7.39
2018-11-20T06:14:39.781Z,7.38
2018-11-20T06:17:26.641Z,7.41
2018-11-20T06:20:03.158Z,7.34
2018-11-20T06:23:06.507Z,7.40
2018-11-20T06:25:40.570Z,7.41
2018-11-20T06:28:34.988Z,7.46
2018-11-20T06:31:30.057Z,7.47
2018-11-20T06:34:55.222Z,7.40
2018-11-20T06:37:41.270Z,7.40
2018-11-20T06:40:22.383Z,7.49
2018-11-20T06:43:21.900Z,7.48
2018-11-20T06:46:15.512Z,7.51
2018-11-20T06:49:09.054Z,7.48
2018-11-20T06:51:59.516Z,7.48
2018-11-20T06:54:45.585Z,7.55
2018-11-20T06:57:42.330Z,7.56
2018-11-20T07:00:29.909Z,7.55
2018-11-20T07:03:32.469Z,7.59
2018-11-20T07:06:25.931Z,7.53
2018-11-20T07:09:11.993Z,7.53
2018-11-20T07:12:11.291Z,7.55
2018-11-20T07:14:53.694Z,7.53
2018-11-20T07:18:01.303Z,7.47
2018-11-20T07:20:40.012Z,7.54
2018-11-20T07:23:30.508Z,7.48
2018-11-20T07:26:16.550Z,7.54
2018-11-20T07:28:56.120Z,7.53
2018-11-20T07:31:42.825Z,7.53
2018-11-20T07:34:26.279Z,7.56
2018-11-20T07:37:22.412Z,7.50
2018-11-20T07:40:09.624Z,7.54
2018-11-20T07:42:56.644Z,7.54
2018-11-20T07:45:42.532Z,7.57
2018-11-20T07:48:25.654Z,7.64
2018-11-20T07:51:11.956Z,7.63
2018-11-20T07:53:56.389Z,7.63
2018-11-20T07:56:53.968Z,7.73
2018-11-20T07:59:40.481Z,7.72
2018-11-20T08:02:27.242Z,7.74
2018-11-20T08:05:08.855Z,7.82
2018-11-20T08:07:56.338Z,7.76
2018-11-20T08:10:43.999Z,7.81
2018-11-20T08:13:39.735Z,7.84
2018-11-20T08:16:27.286Z,7.81
2018-11-20T08:19:30.090Z,7.76
2018-11-20T08:22:27.723Z,7.85
2018-11-20T08:25:30.308Z,7.82
2018-11-20T08:28:23.502Z,7.85
2018-11-20T08:31:09.124Z,7.88
2018-11-20T08:33:59.745Z,7.91
2018-11-20T08:37:05.826Z,7.97
2018-11-20T08:39:59.236Z,7.90
2018-11-20T08:42:58.672Z,7.97
2018-11-20T08:45:44.594Z,8.01
2018-11-20T08:48:32.187Z,8.10
2018-11-20T08:51:28.528Z,8.12
2018-11-20T08:54:14.701Z,8.14
2018-11-20T08:57:04.947Z,8.14
2018-11-20T08:59:51.177Z,8.15
2018-11-20T09:02:37.586Z,8.15
2018-11-20T09:05:24.317Z,8.20
2018-11-20T09:08:23.769Z,8.19
2018-11-20T09:11:10.871Z,8.16
2018-11-20T09:13:50.472Z,8.18
2018-11-20T09:16:37.401Z,8.18
2018-11-20T09:19:25.083Z,8.26
2018-11-20T09:22:11.247Z,8.20
2018-11-20T09:24:57.618Z,8.23
2018-11-20T09:28:03.190Z,8.25
2018-11-20T09:30:42.000Z,8.26
2018-11-20T09:33:29.550Z,8.31
2018-11-20T09:36:24.199Z,8.32
2018-11-20T09:39:20.660Z,8.23
2018-11-20T09:42:08.191Z,8.23
2018-11-20T09:45:07.619Z,8.20
2018-11-20T09:47:55.321Z,8.26
2018-11-20T09:50:53.115Z,8.13
2018-11-20T09:53:39.252Z,8.09
2018-11-20T09:56:25.609Z,8.06
2018-11-20T09:59:11.782Z,8.06
2018-11-20T10:01:55.052Z,8.10
2018-11-20T10:04:42.641Z,8.03
2018-11-20T10:07:39.722Z,8.19
2018-11-20T10:10:27.817Z,8.22
2018-11-20T10:13:13.934Z,8.18
2018-11-20T10:16:01.553Z,8.28
2018-11-20T10:18:51.743Z,8.36
2018-11-20T10:21:45.168Z,8.34
2018-11-20T10:24:30.691Z,8.42
2018-11-20T10:27:18.119Z,8.58
2018-11-20T10:30:04.578Z,8.71
2018-11-20T10:32:54.773Z,8.68
2018-11-20T10:35:48.134Z,8.79
2018-11-20T10:38:32.548Z,9.00
2018-11-20T10:41:19.043Z,9.37
2018-11-20T10:44:03.196Z,9.41
2018-11-20T10:46:57.235Z,9.25
2018-11-20T10:49:43.237Z,9.30
2018-11-20T10:52:27.406Z,9.31
2018-11-20T10:55:24.061Z,9.31
2018-11-20T10:58:01.866Z,9.14
2018-11-20T11:00:48.029Z,9.26
2018-11-20T11:03:26.785Z,9.18
2018-11-20T11:06:12.850Z,9.23
2018-11-20T11:08:46.542Z,9.41
2018-11-20T11:11:40.183Z,9.43
2018-11-20T11:14:26.387Z,9.50
2018-11-20T11:17:19.756Z,9.50
2018-11-20T11:20:16.286Z,9.50
2018-11-20T11:23:12.396Z,9.42
2018-11-20T11:26:04.045Z,9.46
2018-11-20T11:28:42.588Z,9.38
2018-11-20T11:31:28.919Z,9.36
2018-11-20T11:34:31.328Z,9.30
2018-11-20T11:37:17.566Z,9.30
2018-11-20T11:39:58.870Z,9.42
2018-11-20T11:42:44.952Z,9.53
2018-11-20T11:45:47.410Z,9.33
2018-11-20T11:48:33.501Z,9.29
2018-11-20T11:51:25.562Z,9.28
2018-11-20T11:54:10.386Z,9.39
2018-11-20T11:56:57.917Z,9.51
2018-11-20T11:59:44.187Z,9.54
2018-11-20T12:05:24.629Z,9.58
2018-11-20T12:08:14.355Z,9.61
2018-11-20T12:11:00.390Z,9.64
2018-11-20T12:13:47.275Z,9.54
2018-11-20T12:16:43.832Z,9.55
2018-11-20T12:19:37.376Z,9.56
2018-11-20T12:22:34.088Z,9.53
2018-11-20T12:25:36.788Z,9.55
2018-11-20T12:28:30.266Z,9.44
2018-11-20T12:31:36.074Z,9.40
2018-11-20T12:34:22.197Z,9.38
2018-11-20T12:37:15.489Z,9.30
2018-11-20T12:40:02.539Z,9.25
2018-11-20T12:42:52.694Z,9.29
2018-11-20T12:45:51.833Z,9.24
2018-11-20T12:48:58.470Z,9.18
2018-11-20T12:52:05.918Z,9.21
2018-11-20T12:55:03.004Z,9.20
2018-11-20T12:57:56.523Z,9.15
2018-11-20T13:00:42.840Z,9.15
2018-11-20T13:03:28.759Z,9.17
2018-11-20T13:06:18.325Z,9.13
2018-11-20T13:09:20.990Z,9.15
2018-11-20T13:12:07.025Z,9.15
2018-11-20T13:14:54.550Z,9.12
2018-11-20T13:17:40.859Z,9.15
2018-11-20T13:20:46.404Z,9.20
2018-11-20T13:23:52.397Z,9.16
2018-11-20T13:26:39.883Z,9.19
2018-11-20T13:29:33.512Z,9.24
2018-11-20T13:32:23.808Z,9.29
2018-11-20T13:35:09.625Z,9.35
2018-11-20T13:38:02.985Z,9.31
2018-11-20T13:41:29.479Z,9.28
2018-11-20T13:44:11.893Z,9.16
2018-11-20T13:47:04.424Z,9.12
2018-11-20T13:49:52.014Z,9.05
2018-11-20T13:52:31.202Z,9.05
2018-11-20T13:55:21.874Z,9.02
2018-11-20T13:58:26.348Z,8.99
2018-11-20T14:01:26.096Z,9.02
2018-11-20T14:04:13.708Z,8.94
2018-11-20T14:07:19.392Z,8.91
2018-11-20T14:10:06.560Z,8.94
2018-11-20T14:12:52.594Z,8.95
2018-11-20T14:15:55.366Z,9.03
2018-11-20T14:18:45.678Z,8.98
2018-11-20T14:21:31.743Z,8.96
2018-11-20T14:24:25.013Z,8.94
2018-11-20T14:27:18.341Z,8.92
2018-11-20T14:30:04.594Z,8.99
2018-11-20T14:32:41.763Z,9.01
2018-11-20T14:35:27.969Z,9.03
2018-11-20T14:38:30.577Z,9.08
2018-11-20T14:41:11.703Z,9.11
2018-11-20T14:44:05.127Z,9.13
2018-11-20T14:46:51.681Z,9.14
2018-11-20T14:49:51.174Z,9.12
2018-11-20T14:52:50.461Z,9.01
2018-11-20T14:55:56.201Z,9.07
2018-11-20T14:58:43.720Z,9.06
2018-11-20T15:01:31.312Z,9.03
2018-11-20T15:04:36.805Z,9.00
2018-11-20T15:07:23.032Z,9.11
2018-11-20T15:10:16.076Z,9.07
2018-11-20T15:13:09.798Z,9.08
2018-11-20T15:16:05.578Z,9.01
2018-11-20T15:19:11.042Z,9.03
2018-11-20T15:21:58.562Z,8.94
2018-11-20T15:24:35.962Z,8.98
2018-11-20T15:27:24.473Z,8.97
2018-11-20T15:30:10.439Z,8.96
2018-11-20T15:32:57.906Z,8.95
2018-11-20T15:35:44.136Z,8.93
2018-11-20T15:38:31.689Z,8.84
2018-11-20T15:41:17.732Z,8.81
2018-11-20T15:44:20.278Z,8.78
2018-11-20T15:47:07.993Z,8.71
2018-11-20T15:49:58.573Z,8.70
2018-11-20T15:52:49.839Z,8.71
2018-11-20T15:55:40.043Z,8.73
2018-11-20T15:58:33.878Z,8.70
2018-11-20T16:01:23.269Z,8.78
2018-11-20T16:04:16.625Z,8.67
2018-11-20T16:07:04.072Z,8.74
2018-11-20T16:09:43.960Z,8.75
2018-11-20T16:12:30.216Z,8.74
2018-11-20T16:15:16.318Z,8.74
2018-11-20T16:18:09.671Z,8.69
2018-11-20T16:20:55.882Z,8.66
2018-11-20T16:23:38.897Z,8.65
2018-11-20T16:26:32.251Z,8.66
2018-11-20T16:29:18.438Z,8.75
2018-11-20T16:32:05.931Z,8.80
2018-11-20T16:35:00.742Z,8.82
2018-11-20T16:37:51.316Z,8.79
2018-11-20T16:40:37.659Z,8.78
2018-11-20T16:43:25.230Z,8.79
2018-11-20T16:46:21.319Z,8.74
2018-11-20T16:49:17.910Z,8.72
2018-11-20T16:52:20.804Z,8.77
2018-11-20T16:55:09.115Z,8.73
2018-11-20T16:57:59.775Z,8.66
2018-11-20T17:00:43.140Z,8.65
2018-11-20T17:03:30.731Z,8.63
2018-11-20T17:06:20.784Z,8.65
2018-11-20T17:09:17.275Z,8.68
2018-11-20T17:12:04.376Z,8.67
2018-11-20T17:14:50.263Z,8.66
2018-11-20T17:17:36.515Z,8.64
2018-11-20T17:20:38.506Z,8.55
2018-11-20T17:23:37.704Z,8.51
2018-11-20T17:26:37.477Z,8.48
2018-11-20T17:29:27.959Z,8.48
2018-11-20T17:32:10.597Z,8.51
2018-11-20T17:34:56.531Z,8.51
2018-11-20T17:37:37.501Z,8.51
2018-11-20T17:40:36.242Z,8.47
2018-11-20T17:43:32.816Z,8.41
2018-11-20T17:46:18.768Z,8.46
2018-11-20T17:49:21.253Z,8.47
2018-11-20T17:52:07.305Z,8.46
2018-11-20T17:55:05.980Z,8.46
2018-11-20T17:57:57.039Z,8.44
2018-11-20T18:00:45.172Z,8.45
2018-11-20T18:03:31.198Z,8.42
2018-11-20T18:06:18.799Z,8.42
2018-11-20T18:09:04.876Z,8.38
2018-11-20T18:12:01.566Z,8.34
2018-11-20T18:14:47.876Z,8.32
2018-11-20T18:17:23.370Z,8.27
2018-11-20T18:20:16.870Z,8.29
2018-11-20T18:23:13.359Z,8.30
2018-11-20T18:25:59.354Z,8.30
2018-11-20T18:28:52.613Z,8.23
2018-11-20T18:31:58.569Z,8.20
2018-11-20T18:34:52.171Z,8.10
2018-11-20T18:37:45.452Z,8.01
2018-11-20T18:40:51.459Z,7.91
2018-11-20T18:43:37.438Z,7.90
2018-11-20T18:46:25.116Z,7.85
2018-11-20T18:49:21.583Z,7.87
2018-11-20T18:52:24.195Z,7.96
2018-11-20T18:55:10.737Z,7.99
2018-11-20T18:58:07.111Z,8.05
2018-11-20T19:00:52.984Z,8.08
2018-11-20T19:03:27.930Z,8.08
2018-11-20T19:06:15.481Z,8.14
2018-11-20T19:09:15.450Z,8.18
2018-11-20T19:12:09.122Z,8.18
2018-11-20T19:14:55.328Z,8.16
2018-11-20T19:17:46.107Z,8.16
2018-11-20T19:20:32.184Z,8.18
2018-11-20T19:23:09.954Z,8.19
2018-11-20T19:26:06.744Z,8.14
2018-11-20T19:28:56.949Z,8.14
2018-11-20T19:31:58.954Z,8.14
2018-11-20T19:34:58.704Z,8.08
2018-11-20T19:37:46.980Z,7.98
2018-11-20T19:40:33.591Z,7.88
2018-11-20T19:43:19.615Z,7.88
2018-11-20T19:46:05.697Z,7.76
2018-11-20T19:49:08.087Z,7.62
2018-11-20T19:52:00.799Z,7.58
2018-11-20T19:54:44.379Z,7.62
2018-11-20T19:57:39.609Z,7.58
2018-11-20T20:00:48.622Z,7.64
2018-11-20T20:03:34.925Z,7.68
2018-11-20T20:06:40.820Z,7.70
2018-11-20T20:09:33.092Z,7.62
2018-11-20T20:12:26.613Z,7.66
2018-11-20T20:15:20.072Z,7.64
2018-11-20T20:18:06.368Z,7.66
2018-11-20T20:21:02.661Z,7.66
2018-11-20T20:24:05.300Z,7.62
2018-11-20T20:27:08.122Z,7.61
2018-11-20T20:29:58.563Z,7.52
2018-11-20T20:33:04.248Z,7.45
2018-11-20T20:35:54.405Z,7.41
2018-11-20T20:38:38.508Z,7.45
2018-11-20T20:41:25.985Z,7.42
2018-11-20T20:44:16.387Z,7.41
2018-11-20T20:47:02.378Z,7.38
2018-11-20T20:50:05.021Z,7.41
2018-11-20T20:52:45.272Z,7.25
2018-11-20T20:55:32.841Z,7.22
2018-11-20T20:58:29.584Z,7.23
2018-11-20T21:01:15.544Z,7.24
2018-11-20T21:04:03.334Z,7.23
2018-11-20T21:06:45.034Z,7.22
2018-11-20T21:09:31.178Z,7.22
2018-11-20T21:12:24.655Z,7.20
2018-11-20T21:15:10.558Z,7.21
2018-11-20T21:18:00.731Z,7.21
2018-11-20T21:20:48.291Z,7.29
2018-11-20T21:23:41.517Z,7.25
2018-11-20T21:26:41.286Z,7.40
2018-11-20T21:29:24.704Z,7.41
2018-11-20T21:32:12.290Z,7.41
2018-11-20T21:34:55.122Z,7.39
2018-11-20T21:37:41.074Z,7.54
2018-11-20T21:40:34.313Z,7.59
2018-11-20T21:43:34.094Z,7.62
2018-11-20T21:46:20.207Z,7.67
2018-11-20T21:49:10.385Z,7.68
2018-11-20T21:52:05.426Z,7.64
2018-11-20T21:54:51.771Z,7.69
2018-11-20T21:57:40.978Z,7.68
2018-11-20T22:00:39.320Z,7.69
2018-11-20T22:03:38.715Z,7.73
2018-11-20T22:06:25.164Z,7.78
2018-11-20T22:09:18.513Z,7.82
2018-11-20T22:12:05.958Z,7.83
2018-11-20T22:14:53.552Z,7.85
2018-11-20T22:17:39.570Z,7.85
2018-11-20T22:20:30.451Z,7.91
2018-11-20T22:23:26.506Z,7.74
2018-11-20T22:26:20.146Z,7.85
2018-11-20T22:29:22.629Z,7.81
2018-11-20T22:32:25.388Z,7.81
2018-11-20T22:35:21.825Z,7.87
2018-11-20T22:38:18.334Z,7.88
2018-11-20T22:41:13.591Z,7.92
2018-11-20T22:44:04.072Z,7.84
2018-11-20T22:46:57.226Z,7.90
2018-11-20T22:49:43.595Z,7.91
2018-11-20T22:52:33.947Z,7.90
2018-11-20T22:55:27.714Z,7.86
2018-11-20T22:58:16.801Z,7.86
2018-11-20T23:00:53.855Z,7.83
2018-11-20T23:03:36.787Z,7.85
2018-11-20T23:06:23.148Z,7.84
2018-11-20T23:08:51.597Z,7.83
2018-11-20T23:11:20.118Z,7.83
2018-11-20T23:13:48.581Z,7.77
2018-11-20T23:16:17.095Z,7.82
2018-11-20T23:18:45.533Z,7.74
2018-11-20T23:21:14.048Z,7.78
2018-11-20T23:23:42.527Z,7.74
2018-11-20T23:26:11.012Z,7.71
2018-11-20T23:28:39.529Z,7.73
2018-11-20T23:31:07.981Z,7.70
2018-11-20T23:33:36.450Z,7.61
2018-11-20T23:36:05.031Z,7.64
2018-11-20T23:38:33.601Z,7.64
2018-11-20T23:41:02.050Z,7.54
2018-11-20T23:43:30.505Z,7.57
2018-11-20T23:45:58.995Z,7.57
2018-11-20T23:48:27.374Z,7.58
2018-11-20T23:50:55.856Z,7.54
2018-11-20T23:53:24.463Z,7.57
2018-11-20T23:55:52.879Z,7.54
2018-11-20T23:58:21.379Z,7.53
